createdAt,value
2019-04-21T00:00:45.552Z,14.00
2019-04-21T00:03:18.249Z,14.00
2019-04-21T00:06:06.082Z,14.00
2019-04-21T00:08:50.885Z,13.90
2019-04-21T00:11:12.422Z,13.90
2019-04-21T00:13:33.190Z,13.90
2019-04-21T00:15:57.363Z,13.80
2019-04-21T00:18:40.854Z,13.80
2019-04-21T00:21:14.827Z,13.70
2019-04-21T00:23:53.837Z,13.60
2019-04-21T00:26:31.468Z,13.60
2019-04-21T00:29:03.964Z,13.50
2019-04-21T00:31:30.498Z,13.40
2019-04-21T00:33:46.124Z,13.40
2019-04-21T00:36:21.983Z,13.40
2019-04-21T00:39:18.787Z,13.30
2019-04-21T00:41:36.811Z,13.30
2019-04-21T00:44:02.053Z,13.20
2019-04-21T00:46:34.814Z,13.20
2019-04-21T00:49:05.908Z,13.10
2019-04-21T00:51:54.116Z,13.10
2019-04-21T00:54:24.611Z,13.10
2019-04-21T00:56:56.927Z,13.10
2019-04-21T00:59:25.860Z,13.00
2019-04-21T01:01:55.242Z,13.00
2019-04-21T01:04:33.890Z,13.00
2019-04-21T01:07:21.967Z,13.00
2019-04-21T01:09:44.990Z,12.90
2019-04-21T01:12:20.547Z,12.90
2019-04-21T01:14:56.850Z,12.80
2019-04-21T01:17:25.824Z,12.80
2019-04-21T01:19:52.548Z,12.80
2019-04-21T01:22:05.487Z,12.80
2019-04-21T01:24:42.949Z,12.70
2019-04-21T01:27:18.545Z,12.70
2019-04-21T01:29:59.790Z,12.60
2019-04-21T01:32:37.414Z,12.60
2019-04-21T01:35:06.176Z,12.60
2019-04-21T01:37:40.812Z,12.50
2019-04-21T01:40:08.494Z,12.50
2019-04-21T01:43:33.461Z,12.40
2019-04-21T01:45:59.506Z,12.30
2019-04-21T01:48:34.192Z,12.30
2019-04-21T01:51:05.086Z,12.20
2019-04-21T01:54:09.196Z,12.20
2019-04-21T01:56:51.250Z,12.10
2019-04-21T01:59:12.791Z,12.10
2019-04-21T02:02:02.052Z,12.10
2019-04-21T02:04:36.465Z,12.00
2019-04-21T02:07:04.307Z,12.00
2019-04-21T02:09:38.060Z,12.00
2019-04-21T02:12:08.685Z,11.90
2019-04-21T02:14:45.694Z,11.90
2019-04-21T02:17:13.255Z,11.90
2019-04-21T02:19:37.832Z,11.80
2019-04-21T02:22:17.724Z,11.80
2019-04-21T02:24:58.377Z,11.80
2019-04-21T02:27:21.860Z,11.70
2019-04-21T02:29:58.482Z,11.70
2019-04-21T02:32:38.913Z,11.70
2019-04-21T02:37:44.660Z,11.60
2019-04-21T02:40:25.700Z,11.60
2019-04-21T02:42:53.828Z,11.60
2019-04-21T02:45:11.437Z,11.60
2019-04-21T02:47:50.674Z,11.60
2019-04-21T02:57:51.860Z,11.60
2019-04-21T03:00:34.591Z,11.50
2019-04-21T03:03:16.109Z,11.50
2019-04-21T03:05:58.717Z,11.50
2019-04-21T03:11:07.397Z,11.50
2019-04-21T03:13:41.629Z,11.40
2019-04-21T03:16:10.108Z,11.40
2019-04-21T03:18:39.895Z,11.30
2019-04-21T03:21:07.147Z,11.30
2019-04-21T03:23:54.872Z,11.20
2019-04-21T03:28:39.826Z,11.20
2019-04-21T03:34:18.178Z,11.00
2019-04-21T03:38:47.290Z,11.00
2019-04-21T03:43:52.239Z,10.90
2019-04-21T03:46:30.227Z,10.80
2019-04-21T03:48:58.326Z,10.80
2019-04-21T03:51:32.969Z,10.80
2019-04-21T03:53:54.003Z,10.70
2019-04-21T03:56:45.346Z,10.70
2019-04-21T03:58:58.450Z,10.70
2019-04-21T04:01:32.386Z,10.70
2019-04-21T04:10:03.558Z,10.70
2019-04-21T04:12:26.802Z,10.60
2019-04-21T04:20:09.028Z,10.60
2019-04-21T04:25:17.500Z,10.60
2019-04-21T04:27:53.491Z,10.60
2019-04-21T04:30:14.495Z,10.60
2019-04-21T04:35:10.481Z,10.70
2019-04-21T04:37:51.127Z,10.70
2019-04-21T04:48:10.868Z,10.70
2019-04-21T04:53:31.044Z,10.70
2019-04-21T04:58:54.675Z,10.70
2019-04-21T05:00:57.581Z,10.70
2019-04-21T05:03:24.368Z,10.70
2019-04-21T05:09:05.815Z,10.90
2019-04-21T05:14:02.905Z,10.90
2019-04-21T05:21:34.706Z,11.60
2019-04-21T05:24:08.014Z,12.40
2019-04-21T05:26:22.075Z,13.00
2019-04-21T05:28:50.827Z,13.50
2019-04-21T05:31:57.003Z,14.00
2019-04-21T05:34:27.586Z,14.50
2019-04-21T05:37:18.773Z,14.60
2019-04-21T05:39:46.153Z,14.40
2019-04-21T05:42:09.294Z,14.00
2019-04-21T05:44:59.929Z,13.80
2019-04-21T05:47:34.228Z,13.60
2019-04-21T05:50:06.463Z,13.50
2019-04-21T05:52:45.549Z,13.50
2019-04-21T05:55:34.196Z,13.40
2019-04-21T05:57:57.324Z,13.30
2019-04-21T06:03:07.020Z,13.20
2019-04-21T06:08:08.176Z,13.00
2019-04-21T06:10:42.140Z,13.00
2019-04-21T06:13:13.782Z,13.00
2019-04-21T06:15:46.926Z,13.10
2019-04-21T06:18:21.779Z,13.30
2019-04-21T06:20:46.743Z,13.60
2019-04-21T06:23:18.109Z,14.30
2019-04-21T06:28:21.854Z,15.80
2019-04-21T06:30:59.296Z,16.50
2019-04-21T06:33:30.660Z,17.10
2019-04-21T06:38:59.510Z,18.10
2019-04-21T06:41:27.883Z,18.60
2019-04-21T06:43:56.610Z,18.80
2019-04-21T06:46:33.552Z,18.80
2019-04-21T06:51:29.528Z,19.60
2019-04-21T06:56:37.925Z,20.00
2019-04-21T06:59:00.830Z,20.30
2019-04-21T07:01:39.032Z,20.40
2019-04-21T07:04:14.596Z,20.80
2019-04-21T07:06:46.982Z,20.70
2019-04-21T07:09:15.948Z,20.70
2019-04-21T07:11:36.808Z,20.50
2019-04-21T07:14:29.922Z,20.40
2019-04-21T07:16:46.369Z,20.30
2019-04-21T07:21:50.139Z,20.50
2019-04-21T07:24:21.591Z,20.40
2019-04-21T07:26:51.327Z,20.40
2019-04-21T07:29:22.274Z,20.30
2019-04-21T07:31:54.174Z,20.20
2019-04-21T07:36:54.911Z,20.50
2019-04-21T07:39:16.851Z,20.60
2019-04-21T07:41:49.740Z,20.60
2019-04-21T07:44:20.904Z,21.00
2019-04-21T07:46:47.816Z,21.40
2019-04-21T07:49:46.694Z,21.50
2019-04-21T07:52:28.939Z,21.30
2019-04-21T07:55:10.907Z,21.20
2019-04-21T07:57:28.135Z,21.50
2019-04-21T08:00:15.019Z,21.70
2019-04-21T08:05:19.884Z,22.00
2019-04-21T08:07:49.221Z,21.80
2019-04-21T08:10:26.251Z,21.70
2019-04-21T08:12:58.316Z,22.00
2019-04-21T08:15:44.288Z,22.00
2019-04-21T08:18:04.760Z,21.90
2019-04-21T08:20:28.900Z,22.30
2019-04-21T08:23:04.918Z,22.20
2019-04-21T08:25:47.666Z,21.90
2019-04-21T08:28:13.230Z,21.80
2019-04-21T08:30:45.836Z,21.90
2019-04-21T08:36:03.107Z,22.40
2019-04-21T08:38:20.142Z,22.60
2019-04-21T08:40:52.863Z,22.50
2019-04-21T08:43:27.715Z,22.40
2019-04-21T08:45:57.266Z,22.20
2019-04-21T08:48:22.514Z,21.70
2019-04-21T08:51:06.255Z,21.50
2019-04-21T08:53:36.153Z,21.70
2019-04-21T08:56:27.402Z,22.00
2019-04-21T08:59:28.921Z,21.80
2019-04-21T09:02:01.292Z,21.90
2019-04-21T09:04:37.787Z,22.10
2019-04-21T09:07:12.822Z,22.20
2019-04-21T09:09:58.040Z,22.00
2019-04-21T09:12:15.076Z,22.10
2019-04-21T09:14:49.590Z,21.90
2019-04-21T09:17:17.705Z,21.90
2019-04-21T09:19:57.897Z,21.70
2019-04-21T09:22:27.925Z,21.60
2019-04-21T09:25:11.636Z,21.60
2019-04-21T09:27:25.730Z,21.50
2019-04-21T09:29:49.229Z,21.50
2019-04-21T09:32:16.615Z,21.50
2019-04-21T09:34:45.312Z,21.60
2019-04-21T09:37:26.439Z,21.80
2019-04-21T09:39:49.975Z,21.80
2019-04-21T09:42:20.152Z,21.70
2019-04-21T09:44:53.825Z,21.50
2019-04-21T09:47:24.925Z,21.50
2019-04-21T09:49:54.426Z,21.50
2019-04-21T09:52:36.110Z,21.60
2019-04-21T09:55:04.943Z,21.70
2019-04-21T09:57:40.486Z,21.80
2019-04-21T10:00:11.968Z,21.50
2019-04-21T10:02:41.432Z,21.30
2019-04-21T10:05:05.334Z,21.20
2019-04-21T10:07:41.673Z,21.50
2019-04-21T10:10:12.967Z,21.70
2019-04-21T10:12:57.995Z,21.70
2019-04-21T10:15:30.008Z,21.50
2019-04-21T10:18:08.529Z,21.50
2019-04-21T10:20:47.545Z,21.50
2019-04-21T10:23:18.650Z,21.70
2019-04-21T10:25:54.996Z,21.80
2019-04-21T10:28:26.855Z,21.90
2019-04-21T10:31:01.211Z,21.90
2019-04-21T10:33:32.870Z,21.90
2019-04-21T10:36:11.407Z,21.90
2019-04-21T10:38:51.558Z,21.90
2019-04-21T10:41:27.471Z,21.80
2019-04-21T10:43:59.070Z,21.90
2019-04-21T10:46:29.120Z,21.90
2019-04-21T10:49:01.093Z,21.90
2019-04-21T10:51:35.143Z,21.90
2019-04-21T10:54:06.286Z,21.90
2019-04-21T10:56:43.979Z,22.00
2019-04-21T10:59:16.262Z,21.90
2019-04-21T11:01:47.126Z,22.10
2019-04-21T11:04:36.424Z,22.10
2019-04-21T11:07:31.890Z,22.10
2019-04-21T11:10:09.954Z,22.10
2019-04-21T11:12:42.773Z,22.10
2019-04-21T11:15:14.806Z,22.20
2019-04-21T11:17:47.329Z,22.20
2019-04-21T11:20:22.780Z,22.30
2019-04-21T11:23:02.565Z,22.40
2019-04-21T11:25:39.959Z,22.20
2019-04-21T11:28:14.306Z,22.20
2019-04-21T11:30:44.520Z,22.10
2019-04-21T11:33:15.398Z,22.20
2019-04-21T11:35:45.609Z,22.20
2019-04-21T11:38:23.313Z,22.30
2019-04-21T11:40:51.846Z,22.40
2019-04-21T11:43:24.000Z,22.50
2019-04-21T11:45:54.791Z,22.60
2019-04-21T11:48:30.342Z,22.70
2019-04-21T11:51:01.345Z,22.60
2019-04-21T11:53:32.741Z,22.70
2019-04-21T11:56:02.880Z,22.60
2019-04-21T11:58:34.068Z,22.60
2019-04-21T12:01:05.616Z,22.70
2019-04-21T12:03:35.810Z,22.80
2019-04-21T12:06:06.191Z,22.80
2019-04-21T12:08:42.299Z,22.80
2019-04-21T12:11:09.310Z,22.90
2019-04-21T12:13:40.611Z,23.10
2019-04-21T12:16:12.853Z,23.20
2019-04-21T12:18:43.065Z,23.20
2019-04-21T12:21:13.586Z,23.40
2019-04-21T12:23:44.806Z,23.20
2019-04-21T12:26:20.037Z,23.10
2019-04-21T12:28:53.592Z,23.10
2019-04-21T12:31:57.227Z,23.10
2019-04-21T12:34:30.064Z,23.10
2019-04-21T12:37:01.784Z,23.00
2019-04-21T12:39:34.655Z,23.00
2019-04-21T12:42:06.738Z,23.10
2019-04-21T12:44:39.198Z,23.10
2019-04-21T12:47:10.218Z,23.20
2019-04-21T12:49:41.428Z,23.20
2019-04-21T12:52:11.575Z,23.20
2019-04-21T12:54:41.850Z,23.20
2019-04-21T12:57:11.884Z,23.30
2019-04-21T12:59:42.977Z,23.30
2019-04-21T13:02:13.730Z,23.20
2019-04-21T13:04:43.915Z,23.10
2019-04-21T13:07:15.438Z,23.20
2019-04-21T13:09:48.346Z,23.20
2019-04-21T13:12:19.404Z,23.20
2019-04-21T13:14:49.615Z,23.30
2019-04-21T13:17:19.628Z,23.30
2019-04-21T13:19:49.548Z,23.30
2019-04-21T13:22:19.729Z,23.30
2019-04-21T13:24:49.858Z,23.40
2019-04-21T13:27:21.009Z,23.40
2019-04-21T13:29:52.425Z,23.40
2019-04-21T13:32:31.230Z,23.40
2019-04-21T13:35:08.458Z,23.50
2019-04-21T13:37:45.773Z,23.40
2019-04-21T13:41:12.214Z,23.40
2019-04-21T13:43:30.877Z,23.50
2019-04-21T13:46:03.815Z,23.60
2019-04-21T13:48:40.013Z,23.50
2019-04-21T13:51:11.277Z,23.40
2019-04-21T13:53:46.188Z,23.40
2019-04-21T13:56:22.586Z,23.40
2019-04-21T13:59:00.187Z,23.40
2019-04-21T14:01:31.804Z,23.50
2019-04-21T14:04:07.701Z,23.60
2019-04-21T14:06:40.440Z,23.70
2019-04-21T14:09:20.020Z,23.60
2019-04-21T14:11:59.160Z,23.50
2019-04-21T14:14:30.770Z,23.50
2019-04-21T14:17:05.361Z,23.50
2019-04-21T14:19:43.446Z,23.60
2019-04-21T14:22:15.942Z,23.60
2019-04-21T14:24:45.989Z,23.50
2019-04-21T14:27:16.355Z,23.50
2019-04-21T14:29:46.760Z,23.60
2019-04-21T14:32:18.206Z,23.50
2019-04-21T14:34:50.668Z,23.50
2019-04-21T14:37:20.511Z,23.50
2019-04-21T14:39:59.906Z,23.50
2019-04-21T14:42:24.318Z,23.60
2019-04-21T14:44:54.910Z,23.60
2019-04-21T14:47:44.175Z,23.60
2019-04-21T14:50:24.242Z,23.60
2019-04-21T14:53:25.732Z,23.60
2019-04-21T14:55:57.388Z,23.60
2019-04-21T14:58:28.556Z,23.60
2019-04-21T15:01:02.002Z,23.60
2019-04-21T15:03:32.316Z,23.60
2019-04-21T15:06:03.264Z,23.60
2019-04-21T15:08:33.503Z,23.60
2019-04-21T15:11:03.629Z,23.60
2019-04-21T15:13:33.645Z,23.70
2019-04-21T15:16:04.658Z,23.70
2019-04-21T15:18:34.774Z,23.70
2019-04-21T15:21:05.698Z,23.70
2019-04-21T15:23:36.193Z,23.60
2019-04-21T15:26:08.385Z,23.70
2019-04-21T15:28:39.117Z,23.70
2019-04-21T15:31:12.771Z,23.70
2019-04-21T15:33:41.282Z,23.80
2019-04-21T15:36:11.672Z,23.80
2019-04-21T15:38:43.683Z,23.80
2019-04-21T15:41:14.489Z,23.70
2019-04-21T15:43:44.816Z,23.60
2019-04-21T15:46:15.216Z,23.70
2019-04-21T15:48:46.635Z,23.70
2019-04-21T15:51:17.904Z,23.70
2019-04-21T15:53:48.089Z,23.70
2019-04-21T15:56:24.591Z,23.70
2019-04-21T15:59:22.481Z,23.70
2019-04-21T16:02:06.306Z,23.70
2019-04-21T16:04:36.563Z,23.70
2019-04-21T16:07:07.752Z,23.70
2019-04-21T16:09:37.804Z,23.70
2019-04-21T16:12:09.753Z,23.60
2019-04-21T16:14:40.627Z,23.60
2019-04-21T16:17:19.208Z,23.70
2019-04-21T16:19:49.923Z,23.70
2019-04-21T16:22:22.490Z,23.70
2019-04-21T16:24:54.715Z,23.80
2019-04-21T16:27:25.677Z,23.70
2019-04-21T16:29:55.706Z,23.50
2019-04-21T16:32:26.017Z,23.50
2019-04-21T16:35:01.501Z,23.50
2019-04-21T16:37:27.867Z,23.60
2019-04-21T16:39:59.080Z,23.60
2019-04-21T16:42:30.039Z,23.50
2019-04-21T16:45:00.965Z,23.40
2019-04-21T16:47:32.861Z,23.40
2019-04-21T16:50:07.685Z,23.30
2019-04-21T16:52:52.528Z,23.20
2019-04-21T16:55:51.020Z,23.20
2019-04-21T16:58:32.635Z,23.30
2019-04-21T17:01:12.776Z,23.30
2019-04-21T17:03:40.181Z,23.20
2019-04-21T17:06:12.833Z,23.30
2019-04-21T17:08:45.028Z,23.20
2019-04-21T17:11:25.567Z,23.20
2019-04-21T17:13:51.943Z,23.10
2019-04-21T17:19:05.243Z,22.90
2019-04-21T17:21:28.052Z,22.90
2019-04-21T17:23:58.910Z,22.80
2019-04-21T17:26:29.081Z,22.70
2019-04-21T17:28:59.055Z,22.70
2019-04-21T17:31:29.124Z,22.70
2019-04-21T17:34:09.571Z,22.60
2019-04-21T17:36:32.916Z,22.50
2019-04-21T17:39:04.783Z,22.40
2019-04-21T17:41:42.498Z,22.20
2019-04-21T17:44:06.750Z,22.10
2019-04-21T17:46:45.792Z,22.00
2019-04-21T17:49:08.849Z,22.00
2019-04-21T17:52:02.635Z,22.00
2019-04-21T17:54:42.926Z,22.00
2019-04-21T17:57:26.689Z,22.00
2019-04-21T18:00:07.730Z,21.90
2019-04-21T18:02:38.586Z,21.80
2019-04-21T18:05:09.197Z,21.80
2019-04-21T18:07:43.342Z,21.70
2019-04-21T18:10:09.996Z,21.60
2019-04-21T18:12:36.125Z,21.50
2019-04-21T18:15:16.934Z,21.40
2019-04-21T18:17:34.271Z,21.30
2019-04-21T18:20:13.860Z,21.30
2019-04-21T18:23:31.426Z,21.20
2019-04-21T18:26:01.668Z,21.10
2019-04-21T18:28:32.587Z,20.90
2019-04-21T18:31:14.650Z,20.80
2019-04-21T18:34:03.477Z,20.80
2019-04-21T18:36:38.339Z,20.70
2019-04-21T18:39:46.411Z,20.60
2019-04-21T18:42:45.433Z,20.50
2019-04-21T18:45:50.338Z,20.40
2019-04-21T18:48:27.445Z,20.40
2019-04-21T18:51:05.768Z,20.20
2019-04-21T18:53:52.220Z,20.20
2019-04-21T18:56:16.504Z,20.10
2019-04-21T18:58:50.809Z,20.00
2019-04-21T19:01:27.738Z,19.90
2019-04-21T19:04:12.434Z,19.90
2019-04-21T19:06:51.906Z,19.80
2019-04-21T19:09:35.585Z,19.70
2019-04-21T19:12:16.396Z,19.60
2019-04-21T19:14:42.440Z,19.60
2019-04-21T19:22:15.641Z,19.40
2019-04-21T19:24:54.963Z,19.30
2019-04-21T19:27:22.718Z,19.30
2019-04-21T19:30:13.506Z,19.20
2019-04-21T19:32:23.920Z,19.20
2019-04-21T19:34:41.444Z,19.20
2019-04-21T19:37:19.125Z,19.10
2019-04-21T19:40:00.454Z,19.10
2019-04-21T19:42:30.669Z,19.10
2019-04-21T19:45:13.847Z,19.00
2019-04-21T19:47:46.042Z,19.00
2019-04-21T19:50:21.379Z,19.00
2019-04-21T19:52:40.009Z,19.00
2019-04-21T19:55:02.525Z,18.90
2019-04-21T19:57:32.668Z,18.90
2019-04-21T20:00:04.185Z,18.90
2019-04-21T20:02:34.434Z,18.80
2019-04-21T20:05:09.546Z,18.80
2019-04-21T20:07:54.807Z,18.70
2019-04-21T20:10:27.329Z,18.70
2019-04-21T20:12:55.594Z,18.60
2019-04-21T20:15:36.126Z,18.60
2019-04-21T20:17:58.541Z,18.60
2019-04-21T20:20:15.292Z,18.50
2019-04-21T20:22:48.528Z,18.50
2019-04-21T20:25:19.988Z,18.40
2019-04-21T20:27:55.371Z,18.40
2019-04-21T20:30:40.784Z,18.40
2019-04-21T20:33:17.863Z,18.30
2019-04-21T20:38:08.898Z,18.20
2019-04-21T20:40:37.836Z,18.20
2019-04-21T20:43:22.358Z,18.10
2019-04-21T20:45:47.344Z,18.10
2019-04-21T20:48:09.431Z,18.00
2019-04-21T20:50:41.930Z,18.00
2019-04-21T20:53:25.150Z,17.90
2019-04-21T20:55:48.613Z,17.90
2019-04-21T20:58:23.687Z,17.80
2019-04-21T21:01:19.056Z,17.70
2019-04-21T21:03:24.297Z,17.70
2019-04-21T21:05:51.619Z,17.60
2019-04-21T21:08:32.744Z,17.60
2019-04-21T21:10:58.706Z,17.50
2019-04-21T21:13:32.290Z,17.50
2019-04-21T21:16:12.196Z,17.40
2019-04-21T21:18:56.486Z,17.30
2019-04-21T21:21:06.333Z,17.30
2019-04-21T21:23:38.662Z,17.20
2019-04-21T21:26:12.727Z,17.20
2019-04-21T21:28:37.245Z,17.20
2019-04-21T21:31:13.521Z,17.20
2019-04-21T21:33:52.657Z,17.10
2019-04-21T21:36:15.212Z,17.10
2019-04-21T21:38:45.849Z,17.00
2019-04-21T21:41:11.916Z,17.00
2019-04-21T21:43:31.297Z,16.90
2019-04-21T21:46:10.759Z,16.90
2019-04-21T21:48:45.066Z,16.80
2019-04-21T21:51:13.047Z,16.80
2019-04-21T21:53:38.153Z,16.70
2019-04-21T21:56:07.118Z,16.60
2019-04-21T21:58:41.632Z,16.60
2019-04-21T22:01:11.777Z,16.50
2019-04-21T22:03:46.554Z,16.40
2019-04-21T22:06:19.221Z,16.40
2019-04-21T22:08:46.157Z,16.30
2019-04-21T22:11:15.953Z,16.20
2019-04-21T22:13:54.581Z,16.20
2019-04-21T22:16:19.379Z,16.10
2019-04-21T22:19:08.148Z,16.10
2019-04-21T22:21:44.372Z,16.00
2019-04-21T22:23:58.048Z,16.00
2019-04-21T22:26:25.095Z,15.90
2019-04-21T22:28:55.860Z,15.90
2019-04-21T22:31:31.930Z,15.90
2019-04-21T22:34:02.228Z,15.90
2019-04-21T22:36:44.093Z,15.80
2019-04-21T22:39:22.387Z,15.80
2019-04-21T22:41:38.091Z,15.70
2019-04-21T22:44:05.178Z,15.70
2019-04-21T22:46:36.125Z,15.70
2019-04-21T22:49:10.349Z,15.60
2019-04-21T22:51:43.075Z,15.60
2019-04-21T22:54:12.759Z,15.50
2019-04-21T22:56:51.126Z,15.50
2019-04-21T22:59:15.944Z,15.40
2019-04-21T23:01:49.932Z,15.40
2019-04-21T23:04:15.923Z,15.40
2019-04-21T23:06:48.789Z,15.30
2019-04-21T23:09:19.170Z,15.30
2019-04-21T23:11:51.513Z,15.20
2019-04-21T23:14:21.451Z,15.20
2019-04-21T23:16:54.220Z,15.20
2019-04-21T23:19:35.763Z,15.10
2019-04-21T23:22:14.700Z,15.10
2019-04-21T23:24:49.626Z,15.10
2019-04-21T23:27:13.174Z,15.10
2019-04-21T23:30:11.701Z,15.00
2019-04-21T23:32:15.860Z,15.00
2019-04-21T23:34:36.587Z,14.90
2019-04-21T23:37:12.144Z,14.90
2019-04-21T23:39:37.312Z,14.90
2019-04-21T23:42:06.393Z,14.90
2019-04-21T23:44:42.857Z,14.80
2019-04-21T23:47:11.804Z,14.80
2019-04-21T23:49:49.645Z,14.80
2019-04-21T23:52:13.793Z,14.70
2019-04-21T23:54:43.032Z,14.70
2019-04-21T23:57:23.153Z,14.60
2019-04-21T23:59:48.707Z,14.60
